createdAt,value
2019-05-23T11:47:17.997Z,8.05
2019-05-23T11:49:48.759Z,6.53
2019-05-23T11:52:20.311Z,7.35
2019-05-23T11:54:50.797Z,7.83
2019-05-23T11:57:21.012Z,8.65
2019-05-23T11:59:52.116Z,9.08
2019-05-23T12:02:28.331Z,6.85
2019-05-23T12:04:59.576Z,5.30
2019-05-23T12:07:34.704Z,7.05
2019-05-23T12:10:05.751Z,8.23
2019-05-23T12:12:35.988Z,10.10
2019-05-23T12:15:10.333Z,6.55
2019-05-23T12:17:40.984Z,5.62
2019-05-23T12:20:11.933Z,6.67
2019-05-23T12:22:43.299Z,6.55
2019-05-23T12:25:22.551Z,7.30
2019-05-23T12:27:48.280Z,6.15
2019-05-23T12:30:19.676Z,8.13
2019-05-23T12:32:50.351Z,7.22
2019-05-23T12:35:21.019Z,6.22
2019-05-23T12:37:51.223Z,8.93
2019-05-23T12:40:21.595Z,9.03
2019-05-23T12:42:52.723Z,6.90
2019-05-23T12:45:23.576Z,7.10
2019-05-23T12:47:58.504Z,6.15
2019-05-23T12:50:33.306Z,5.25
2019-05-23T12:53:03.470Z,5.15
2019-05-23T12:55:33.602Z,5.10
2019-05-23T12:58:03.956Z,5.95
2019-05-23T13:00:45.220Z,6.60
2019-05-23T13:03:16.521Z,6.08
2019-05-23T13:05:46.778Z,5.28
2019-05-23T13:08:17.709Z,6.05
2019-05-23T13:10:48.102Z,4.65
2019-05-23T13:13:20.945Z,6.15
2019-05-23T13:15:52.459Z,5.35
2019-05-23T13:18:25.439Z,7.97
2019-05-23T13:20:59.268Z,5.42
2019-05-23T13:23:28.384Z,7.05
2019-05-23T13:25:59.097Z,5.72
2019-05-23T13:28:29.430Z,6.50
2019-05-23T13:31:00.151Z,4.83
2019-05-23T13:33:30.914Z,5.95
2019-05-23T13:36:02.180Z,6.47
2019-05-23T13:38:32.807Z,4.47
2019-05-23T13:41:03.263Z,4.85
2019-05-23T13:43:34.834Z,4.70
2019-05-23T13:46:08.214Z,6.15
2019-05-23T13:48:38.711Z,5.25
2019-05-23T13:51:08.914Z,4.00
2019-05-23T13:53:39.974Z,5.15
2019-05-23T13:56:10.620Z,4.78
2019-05-23T13:58:41.564Z,3.67
2019-05-23T14:01:14.155Z,4.72
2019-05-23T14:03:46.821Z,5.85
2019-05-23T14:06:20.008Z,3.95
2019-05-23T14:08:50.749Z,4.92
2019-05-23T14:11:21.272Z,4.33
2019-05-23T14:13:59.715Z,4.65
2019-05-23T14:16:24.314Z,6.25
2019-05-23T14:18:54.571Z,3.62
2019-05-23T14:21:26.031Z,3.45
2019-05-23T14:23:56.575Z,3.52
2019-05-23T14:26:29.036Z,4.58
2019-05-23T14:28:59.382Z,4.50
2019-05-23T14:31:34.039Z,2.87
2019-05-23T14:34:07.672Z,4.97
2019-05-23T14:36:50.870Z,4.15
2019-05-23T14:39:27.585Z,4.85
2019-05-23T14:42:03.606Z,5.40
2019-05-23T14:44:33.930Z,6.30
2019-05-23T14:47:22.393Z,5.28
2019-05-23T14:50:04.650Z,5.92
2019-05-23T14:52:38.897Z,5.65
2019-05-23T14:55:10.993Z,6.00
2019-05-23T14:57:43.633Z,4.40
2019-05-23T15:00:14.639Z,3.83
2019-05-23T15:02:45.254Z,4.20
2019-05-23T15:05:15.713Z,4.58
2019-05-23T15:07:46.575Z,4.35
2019-05-23T15:10:18.051Z,4.92
2019-05-23T15:12:49.385Z,3.47
2019-05-23T15:15:20.272Z,3.50
2019-05-23T15:17:50.862Z,3.50
2019-05-23T15:20:21.380Z,5.35
2019-05-23T15:22:52.249Z,4.20
2019-05-23T15:25:22.664Z,5.67
2019-05-23T15:27:56.211Z,3.37
2019-05-23T15:30:27.185Z,3.52
2019-05-23T15:32:57.778Z,4.67
2019-05-23T15:35:28.247Z,5.78
2019-05-23T15:38:02.461Z,2.45
2019-05-23T15:40:32.871Z,3.58
2019-05-23T15:43:03.804Z,3.80
2019-05-23T15:45:34.821Z,5.15
2019-05-23T15:48:05.799Z,5.10
2019-05-23T15:50:45.272Z,3.65
2019-05-23T15:53:42.604Z,3.05
2019-05-23T15:59:22.027Z,3.92
2019-05-23T16:02:00.033Z,3.90
2019-05-23T16:04:33.380Z,3.25
2019-05-23T16:07:03.892Z,4.53
2019-05-23T16:09:35.097Z,4.55
2019-05-23T16:12:06.665Z,2.70
2019-05-23T16:14:37.349Z,4.58
2019-05-23T16:17:09.438Z,5.05
2019-05-23T16:19:40.552Z,3.52
2019-05-23T16:22:11.564Z,4.67
2019-05-23T16:24:42.108Z,3.77
2019-05-23T16:27:12.815Z,4.25
2019-05-23T16:29:45.250Z,4.83
2019-05-23T16:32:15.978Z,4.50
2019-05-23T16:34:46.600Z,5.33
2019-05-23T16:37:17.044Z,3.50
2019-05-23T16:39:49.938Z,10.15
2019-05-23T16:42:21.083Z,6.87
2019-05-23T16:44:52.444Z,4.20
2019-05-23T16:47:23.149Z,3.85
2019-05-23T16:49:54.317Z,3.72
2019-05-23T16:52:24.837Z,3.65
2019-05-23T16:54:57.217Z,2.50
2019-05-23T16:57:37.436Z,3.02
2019-05-23T17:00:28.517Z,3.60
2019-05-23T17:03:28.345Z,6.35
2019-05-23T17:06:16.462Z,3.87
2019-05-23T17:08:55.125Z,3.15
2019-05-23T17:11:44.593Z,4.12
2019-05-23T17:14:20.535Z,3.15
2019-05-23T17:17:05.467Z,2.98
2019-05-23T17:19:49.172Z,4.22
2019-05-23T17:22:37.436Z,5.00
2019-05-23T17:25:27.721Z,4.70
2019-05-23T17:28:25.761Z,4.50
2019-05-23T17:31:22.423Z,3.70
2019-05-23T17:33:54.329Z,2.90
2019-05-23T17:36:25.134Z,2.33
2019-05-23T17:38:55.940Z,3.00
2019-05-23T17:41:27.831Z,2.90
2019-05-23T17:43:58.037Z,4.08
2019-05-23T17:46:28.992Z,2.90
2019-05-23T17:49:00.394Z,3.58
2019-05-23T17:51:31.995Z,3.77
2019-05-23T17:54:02.782Z,2.60
2019-05-23T17:56:37.000Z,2.65
2019-05-23T17:59:09.505Z,2.42
2019-05-23T18:01:42.594Z,2.02
2019-05-23T18:04:13.699Z,3.20
2019-05-23T18:06:44.782Z,5.28
2019-05-23T18:09:16.413Z,4.40
2019-05-23T18:11:47.040Z,5.87
2019-05-23T18:14:17.711Z,2.92
2019-05-23T18:16:48.736Z,3.22
2019-05-23T18:19:19.697Z,3.58
2019-05-23T18:21:51.328Z,2.37
2019-05-23T18:24:22.355Z,4.03
2019-05-23T18:26:53.074Z,2.62
2019-05-23T18:29:25.525Z,2.90
2019-05-23T18:31:56.390Z,3.75
2019-05-23T18:34:31.321Z,2.58
2019-05-23T18:37:02.221Z,3.27
2019-05-23T18:39:34.758Z,3.00
2019-05-23T18:42:07.325Z,3.02
2019-05-23T18:44:40.182Z,3.00
2019-05-23T18:47:18.391Z,2.35
2019-05-23T18:49:48.636Z,2.27
2019-05-23T18:52:20.441Z,2.75
2019-05-23T18:54:52.589Z,2.80
2019-05-23T18:57:24.509Z,2.62
2019-05-23T18:59:56.163Z,3.80
2019-05-23T19:02:27.366Z,4.28
2019-05-23T19:04:58.287Z,2.75
2019-05-23T19:07:31.466Z,3.45
2019-05-23T19:10:12.509Z,2.87
2019-05-23T19:12:43.595Z,3.27
2019-05-23T19:15:16.190Z,4.45
2019-05-23T19:17:47.043Z,4.62
2019-05-23T19:20:20.123Z,2.90
2019-05-23T19:23:10.673Z,3.62
2019-05-23T19:25:42.558Z,6.10
2019-05-23T19:28:17.561Z,4.70
2019-05-23T19:30:51.095Z,3.33
2019-05-23T19:33:23.072Z,3.60
2019-05-23T19:35:55.973Z,2.80
2019-05-23T19:38:27.888Z,5.42
2019-05-23T19:41:00.356Z,4.40
2019-05-23T19:43:33.706Z,6.35
2019-05-23T19:46:05.232Z,5.70
2019-05-23T19:48:38.941Z,6.60
2019-05-23T19:51:13.144Z,5.05
2019-05-23T19:53:44.419Z,4.83
2019-05-23T19:56:15.045Z,5.80
2019-05-23T19:58:46.073Z,5.80
2019-05-23T20:01:17.385Z,6.47
2019-05-23T20:03:49.013Z,6.85
2019-05-23T20:06:20.161Z,9.18
2019-05-23T20:08:50.991Z,10.43
2019-05-23T20:11:22.050Z,8.55
2019-05-23T20:13:52.639Z,5.72
2019-05-23T20:16:23.172Z,8.23
2019-05-23T20:18:53.706Z,6.12
2019-05-23T20:21:24.681Z,7.83
2019-05-23T20:23:55.350Z,6.10
2019-05-23T20:26:25.714Z,5.50
2019-05-23T20:28:56.587Z,5.72
2019-05-23T20:31:27.118Z,8.23
2019-05-23T20:33:57.679Z,8.10
2019-05-23T20:36:28.103Z,7.47
2019-05-23T20:38:58.339Z,8.95
2019-05-23T20:41:29.514Z,7.45
2019-05-23T20:44:01.864Z,9.55
2019-05-23T20:46:32.467Z,9.83
2019-05-23T20:49:03.943Z,5.40
2019-05-23T20:51:38.448Z,6.12
2019-05-23T20:54:08.678Z,7.17
2019-05-23T20:56:39.124Z,6.92
2019-05-23T20:59:10.023Z,7.30
2019-05-23T21:01:42.443Z,6.83
2019-05-23T21:04:13.925Z,7.58
2019-05-23T21:06:44.990Z,7.05
2019-05-23T21:09:16.063Z,6.67
2019-05-23T21:11:46.561Z,9.43
2019-05-23T21:14:18.024Z,5.75
2019-05-23T21:16:48.936Z,8.83
2019-05-23T21:19:20.661Z,7.37
2019-05-23T21:21:50.940Z,7.40
2019-05-23T21:24:22.436Z,7.28
2019-05-23T21:26:53.180Z,5.45
2019-05-23T21:29:23.612Z,7.83
2019-05-23T21:31:54.083Z,6.42
2019-05-23T21:34:24.920Z,8.85
2019-05-23T21:36:55.810Z,6.95
2019-05-23T21:39:26.300Z,8.65
2019-05-23T21:41:56.858Z,5.55
2019-05-23T21:44:27.650Z,5.85
2019-05-23T21:46:58.231Z,7.90
2019-05-23T21:49:30.025Z,5.28
2019-05-23T21:52:00.593Z,5.60
2019-05-23T21:54:31.606Z,5.65
2019-05-23T21:57:02.262Z,6.90
2019-05-23T21:59:32.899Z,6.87
2019-05-23T22:02:26.096Z,7.35
2019-05-23T22:05:21.572Z,7.70
2019-05-23T22:07:52.839Z,7.22
2019-05-23T22:10:23.124Z,6.50
2019-05-23T22:13:03.772Z,5.10
2019-05-23T22:15:38.642Z,6.45
2019-05-23T22:18:09.105Z,11.15
2019-05-23T22:20:39.623Z,7.33
2019-05-23T22:23:10.229Z,10.95
2019-05-23T22:25:40.311Z,7.45
2019-05-23T22:28:10.605Z,7.08
2019-05-23T22:30:41.425Z,8.35
2019-05-23T22:33:14.110Z,7.78
2019-05-23T22:35:45.457Z,6.00
2019-05-23T22:38:17.216Z,6.15
2019-05-23T22:40:51.550Z,9.05
2019-05-23T22:43:21.967Z,8.38
2019-05-23T22:45:52.669Z,7.72
2019-05-23T22:48:22.932Z,8.15
2019-05-23T22:50:55.191Z,7.60
2019-05-23T22:53:25.932Z,8.93
2019-05-23T22:55:56.433Z,7.67
2019-05-23T22:58:26.743Z,7.87
2019-05-23T23:00:57.087Z,8.08
2019-05-23T23:03:29.499Z,8.10
2019-05-23T23:05:59.915Z,7.78
2019-05-23T23:08:31.097Z,6.65
2019-05-23T23:11:01.344Z,6.42
2019-05-23T23:13:38.806Z,8.33
2019-05-23T23:16:04.984Z,8.60
2019-05-23T23:18:35.290Z,9.80
2019-05-23T23:21:05.718Z,8.65
2019-05-23T23:23:36.360Z,8.03
2019-05-23T23:26:06.669Z,13.30
2019-05-23T23:28:37.599Z,10.08
2019-05-23T23:31:07.942Z,10.03
2019-05-23T23:33:38.242Z,11.60
2019-05-23T23:36:08.809Z,9.50
2019-05-23T23:38:38.944Z,9.85
2019-05-23T23:41:09.014Z,9.45
2019-05-23T23:43:55.948Z,9.15
2019-05-23T23:46:29.604Z,6.62
2019-05-23T23:49:17.941Z,9.35
2019-05-23T23:52:06.227Z,9.30
2019-05-23T23:54:53.977Z,9.10
